Time;durP1;ratioP1;P1;durP2;ratioP2;P2;SDS_P1;SDS_P2;PMS_P1;PMS_P2;Temp;Humidity;BMP_temperature;BMP_pressure;BME280_temperature;BME280_humidity;BME280_pressure;Samples;Min_cycle;Max_cycle;Signal;HPM_P1;HPM_P2
2023/07/04 00:01:00;;;;;;;2.60;1.00;;;24.00;90.10;;;;;;5032693;28;20036;-80
2023/07/04 00:03:27;;;;;;;1.35;1.17;;;24.00;90.30;;;;;;5033564;28;20037;-80
2023/07/04 00:05:56;;;;;;;2.53;1.30;;;23.90;90.40;;;;;;5036491;28;20104;-80
2023/07/04 00:08:26;;;;;;;2.38;1.27;;;23.80;90.60;;;;;;5017768;28;20025;-80
2023/07/04 00:10:56;;;;;;;2.53;1.35;;;23.70;90.80;;;;;;5035897;28;20037;-80
2023/07/04 00:13:23;;;;;;;2.97;1.13;;;23.70;91.00;;;;;;5036422;28;20025;-80
2023/07/04 00:15:51;;;;;;;1.00;0.90;;;23.60;91.00;;;;;;5036404;28;20480;-80
2023/07/04 00:18:21;;;;;;;1.27;0.85;;;23.60;91.00;;;;;;5036266;28;20405;-80
2023/07/04 00:20:54;;;;;;;1.98;0.68;;;23.60;91.00;;;;;;5036227;28;20033;-80
2023/07/04 00:23:25;;;;;;;1.30;1.08;;;23.60;90.90;;;;;;5036350;28;20075;-80
2023/07/04 00:25:52;;;;;;;2.10;0.90;;;23.50;90.90;;;;;;5035225;28;20041;-80
2023/07/04 00:28:21;;;;;;;1.95;0.90;;;23.50;91.00;;;;;;5018437;28;20041;-80
2023/07/04 00:30:47;;;;;;;1.00;0.90;;;23.50;90.90;;;;;;5035529;28;20112;-80
2023/07/04 00:33:13;;;;;;;0.95;0.80;;;23.50;90.90;;;;;;5035994;28;20096;-80
2023/07/04 00:35:40;;;;;;;1.77;0.88;;;23.50;91.10;;;;;;5035999;28;20381;-80
2023/07/04 00:38:06;;;;;;;2.30;0.88;;;23.50;91.20;;;;;;5018126;28;20112;-80
2023/07/04 00:40:31;;;;;;;2.33;0.90;;;23.40;91.20;;;;;;5035760;28;20128;-80
2023/07/04 00:43:03;;;;;;;0.88;0.73;;;23.40;91.20;;;;;;5035489;28;20517;-80
2023/07/04 00:45:37;;;;;;;1.33;0.88;;;23.40;91.30;;;;;;5035971;28;20022;-80
2023/07/04 00:48:06;;;;;;;1.13;0.75;;;23.40;91.40;;;;;;5035780;28;20056;-80
2023/07/04 00:50:39;;;;;;;1.95;0.90;;;23.40;91.30;;;;;;5035914;28;20049;-80
2023/07/04 00:53:09;;;;;;;1.33;0.70;;;23.30;91.30;;;;;;5035367;28;20021;-80
2023/07/04 00:55:39;;;;;;;2.80;0.85;;;23.20;91.40;;;;;;5035163;28;20043;-80
2023/07/04 00:58:06;;;;;;;2.67;0.90;;;23.20;91.40;;;;;;5035560;28;20108;-80
2023/07/04 01:00:33;;;;;;;1.33;0.73;;;23.20;91.30;;;;;;5035675;28;20108;-80
2023/07/04 01:03:05;;;;;;;1.38;0.68;;;23.20;91.30;;;;;;5035489;28;20068;-80
2023/07/04 01:06:08;;;;;;;0.80;0.63;;;23.20;91.60;;;;;;5035590;28;20037;-80
2023/07/04 01:08:39;;;;;;;1.38;0.70;;;23.30;91.90;;;;;;5035545;28;20022;-80
2023/07/04 01:11:12;;;;;;;0.80;0.60;;;23.30;91.90;;;;;;5035009;28;20462;-80
2023/07/04 01:13:43;;;;;;;3.30;0.93;;;23.40;92.00;;;;;;5017638;28;20050;-80
2023/07/04 01:16:11;;;;;;;1.52;0.80;;;23.40;91.80;;;;;;5035364;28;20104;-80
2023/07/04 01:18:39;;;;;;;1.40;0.60;;;23.40;91.80;;;;;;5035212;28;20381;-80
2023/07/04 01:21:07;;;;;;;1.40;0.50;;;23.40;91.90;;;;;;5035272;28;20030;-80
2023/07/04 01:23:52;;;;;;;1.63;0.60;;;23.50;92.10;;;;;;5035083;28;20033;-80
2023/07/04 01:26:23;;;;;;;0.82;0.63;;;23.50;91.90;;;;;;5034323;28;20024;-80
2023/07/04 01:28:53;;;;;;;2.38;0.95;;;23.50;91.70;;;;;;5035141;28;20037;-80
2023/07/04 01:31:23;;;;;;;2.33;1.00;;;23.50;91.50;;;;;;5032871;28;20022;-80
2023/07/04 01:33:49;;;;;;;1.00;0.90;;;23.50;91.50;;;;;;5032096;28;20075;-80
2023/07/04 01:36:22;;;;;;;1.75;0.95;;;23.50;91.50;;;;;;5034227;28;20026;-80
2023/07/04 01:38:49;;;;;;;1.30;1.00;;;23.40;91.30;;;;;;5034555;28;20017;-80
2023/07/04 01:41:15;;;;;;;1.00;0.90;;;23.40;91.40;;;;;;5016780;28;20061;-80
2023/07/04 01:43:43;;;;;;;1.42;0.73;;;23.40;91.60;;;;;;5034034;28;20087;-80
2023/07/04 01:46:09;;;;;;;1.67;1.02;;;23.40;91.60;;;;;;5033997;28;20469;-80
2023/07/04 01:48:35;;;;;;;2.70;0.93;;;23.40;91.60;;;;;;5034488;28;20040;-80
2023/07/04 01:51:00;;;;;;;1.52;0.90;;;23.40;91.50;;;;;;5034344;28;20021;-80
2023/07/04 01:53:26;;;;;;;1.63;0.75;;;23.40;91.40;;;;;;5034134;28;20071;-80
2023/07/04 01:55:52;;;;;;;1.95;0.90;;;23.40;91.30;;;;;;5033780;28;20466;-80
2023/07/04 01:58:17;;;;;;;2.90;0.80;;;23.30;91.20;;;;;;5033871;28;20508;-80
2023/07/04 02:00:43;;;;;;;2.30;0.57;;;23.30;91.10;;;;;;5033834;28;20075;-80
2023/07/04 02:03:09;;;;;;;1.83;0.80;;;23.30;91.00;;;;;;5033676;28;20104;-80
2023/07/04 02:05:34;;;;;;;2.47;1.23;;;23.30;90.90;;;;;;5033897;28;20381;-80
2023/07/04 02:08:00;;;;;;;0.90;0.70;;;23.30;90.90;;;;;;5033752;28;20080;-80
2023/07/04 02:10:26;;;;;;;2.25;0.68;;;23.30;90.80;;;;;;5033885;28;20709;-80
2023/07/04 02:12:52;;;;;;;3.78;0.70;;;23.20;90.80;;;;;;5033441;28;20412;-80
2023/07/04 02:15:17;;;;;;;1.17;0.80;;;23.20;90.70;;;;;;5034114;28;20121;-81
2023/07/04 02:17:43;;;;;;;0.95;0.68;;;23.20;90.70;;;;;;5034030;28;20029;-81
2023/07/04 02:20:10;;;;;;;1.00;0.70;;;23.30;90.80;;;;;;5034335;28;20057;-81
2023/07/04 02:22:38;;;;;;;1.05;0.68;;;23.20;90.80;;;;;;5033641;28;20037;-81
2023/07/04 02:25:04;;;;;;;1.10;0.52;;;23.30;91.10;;;;;;5033294;28;20108;-81
2023/07/04 02:27:29;;;;;;;1.42;0.47;;;23.20;90.80;;;;;;5015524;28;20137;-81
2023/07/04 02:29:55;;;;;;;2.05;0.60;;;23.20;90.90;;;;;;5034043;28;20017;-81
2023/07/04 02:32:21;;;;;;;0.90;0.65;;;23.20;90.70;;;;;;5033395;28;20064;-81
2023/07/04 02:34:46;;;;;;;1.13;0.68;;;23.10;90.80;;;;;;5033558;28;20044;-81
2023/07/04 02:37:12;;;;;;;0.80;0.80;;;23.10;90.90;;;;;;5033716;28;20446;-81
2023/07/04 02:39:39;;;;;;;1.25;0.73;;;23.00;90.90;;;;;;5033852;28;20482;-81
2023/07/04 02:42:05;;;;;;;1.10;0.80;;;23.00;91.00;;;;;;5015575;28;20068;-81
2023/07/04 02:44:31;;;;;;;1.30;0.65;;;23.00;91.20;;;;;;5033733;28;20453;-81
2023/07/04 02:46:56;;;;;;;4.10;0.90;;;22.90;91.20;;;;;;5032939;28;20026;-81
2023/07/04 02:49:22;;;;;;;4.28;0.60;;;22.80;91.20;;;;;;5033479;28;20492;-81
2023/07/04 02:51:48;;;;;;;0.73;0.73;;;22.80;91.30;;;;;;5033834;28;20025;-81
2023/07/04 02:54:15;;;;;;;1.50;0.70;;;22.80;91.50;;;;;;5015520;28;20039;-81
2023/07/04 02:56:41;;;;;;;1.45;0.80;;;22.80;91.60;;;;;;5033189;28;20115;-81
2023/07/04 02:59:07;;;;;;;0.60;0.60;;;22.80;91.60;;;;;;5015555;28;20036;-81
2023/07/04 03:01:33;;;;;;;0.95;0.77;;;22.80;91.60;;;;;;5015780;28;20557;-81
2023/07/04 03:03:59;;;;;;;1.23;0.60;;;22.70;91.60;;;;;;5033333;28;20390;-81
2023/07/04 03:06:24;;;;;;;1.30;0.55;;;22.80;91.80;;;;;;5033148;28;20100;-81
2023/07/04 03:08:51;;;;;;;0.50;0.50;;;22.80;91.60;;;;;;5033478;28;20027;-81
2023/07/04 03:11:18;;;;;;;2.20;0.70;;;22.70;91.60;;;;;;5033463;28;20050;-81
2023/07/04 03:13:43;;;;;;;1.00;0.55;;;22.80;91.70;;;;;;5033402;28;20041;-80
2023/07/04 03:16:09;;;;;;;2.50;0.90;;;22.80;91.80;;;;;;5032820;28;20486;-81
2023/07/04 03:18:35;;;;;;;1.52;0.80;;;22.80;91.80;;;;;;5033416;28;20020;-81
2023/07/04 03:21:01;;;;;;;1.77;0.82;;;22.80;91.90;;;;;;5033313;28;20079;-80
2023/07/04 03:23:26;;;;;;;0.95;0.63;;;22.80;91.80;;;;;;5033261;28;20029;-80
2023/07/04 03:25:52;;;;;;;3.08;0.70;;;22.80;91.90;;;;;;5032715;28;20036;-80
2023/07/04 03:28:18;;;;;;;1.55;0.63;;;22.80;91.80;;;;;;5033152;28;20530;-80
2023/07/04 03:30:44;;;;;;;0.90;0.70;;;22.80;91.80;;;;;;5033073;28;20124;-80
2023/07/04 03:33:09;;;;;;;2.55;0.63;;;22.80;91.80;;;;;;5032943;28;20021;-80
2023/07/04 03:35:38;;;;;;;1.35;0.68;;;22.80;91.80;;;;;;5032685;28;20037;-80
2023/07/04 03:38:04;;;;;;;1.33;0.60;;;22.80;91.90;;;;;;5033825;28;20032;-80
2023/07/04 03:40:30;;;;;;;2.55;0.70;;;22.80;92.00;;;;;;5036873;28;20381;-80
2023/07/04 03:42:55;;;;;;;1.35;0.60;;;22.80;92.10;;;;;;5036913;28;20040;-80
2023/07/04 03:45:21;;;;;;;2.00;0.60;;;22.80;92.10;;;;;;5036182;28;20037;-80
2023/07/04 03:47:47;;;;;;;1.95;0.85;;;22.80;92.10;;;;;;5036243;28;20098;-80
2023/07/04 03:50:13;;;;;;;2.42;0.90;;;22.80;92.10;;;;;;5036940;28;20034;-80
2023/07/04 03:52:39;;;;;;;0.88;0.60;;;22.80;91.90;;;;;;5036800;28;20022;-80
2023/07/04 03:55:06;;;;;;;1.15;0.82;;;22.80;91.80;;;;;;5036666;28;20083;-80
2023/07/04 03:57:32;;;;;;;2.15;0.70;;;22.70;91.70;;;;;;5036603;28;20040;-80
2023/07/04 03:59:57;;;;;;;0.75;0.60;;;22.70;91.80;;;;;;5036673;28;20025;-80
2023/07/04 04:02:23;;;;;;;1.40;0.82;;;22.80;92.00;;;;;;5036529;28;20080;-80
2023/07/04 04:04:49;;;;;;;2.03;1.08;;;22.80;92.10;;;;;;5036476;28;20039;-80
2023/07/04 04:07:15;;;;;;;4.53;1.48;;;22.80;92.10;;;;;;5036393;28;20029;-80
2023/07/04 04:09:42;;;;;;;2.22;1.13;;;22.80;92.20;;;;;;5036454;28;20036;-80
2023/07/04 04:12:08;;;;;;;0.93;0.80;;;22.80;92.10;;;;;;5018688;28;20052;-80
2023/07/04 04:14:36;;;;;;;1.98;0.80;;;22.80;91.90;;;;;;5036189;28;20116;-80
2023/07/04 04:17:03;;;;;;;1.10;0.77;;;22.80;91.90;;;;;;5035869;28;20083;-80
2023/07/04 04:19:28;;;;;;;0.90;0.85;;;22.70;91.90;;;;;;5036356;28;20040;-80
2023/07/04 04:21:55;;;;;;;1.05;0.70;;;22.70;91.80;;;;;;5036221;28;20029;-80
2023/07/04 04:24:21;;;;;;;0.90;0.70;;;22.70;91.80;;;;;;5036228;28;20065;-80
2023/07/04 04:26:47;;;;;;;1.77;0.88;;;22.70;91.70;;;;;;5036036;28;20033;-80
2023/07/04 04:29:15;;;;;;;1.75;0.80;;;22.70;91.70;;;;;;5036209;28;20373;-81
2023/07/04 04:31:41;;;;;;;2.63;0.98;;;22.70;91.90;;;;;;5036155;28;20017;-81
2023/07/04 04:34:08;;;;;;;2.65;0.88;;;22.60;92.00;;;;;;5036204;28;20117;-81
2023/07/04 04:36:34;;;;;;;2.45;0.85;;;22.60;91.80;;;;;;5035689;28;20025;-81
2023/07/04 04:39:01;;;;;;;1.60;0.82;;;22.60;91.70;;;;;;5035704;28;20065;-81
2023/07/04 04:41:27;;;;;;;1.10;0.60;;;22.60;91.70;;;;;;5036095;28;20537;-81
2023/07/04 04:43:54;;;;;;;0.93;0.70;;;22.60;91.80;;;;;;5035570;28;20033;-81
2023/07/04 04:46:21;;;;;;;0.93;0.60;;;22.60;91.80;;;;;;5035687;28;20100;-81
2023/07/04 04:48:47;;;;;;;3.65;0.77;;;22.60;91.70;;;;;;5035316;28;20040;-81
2023/07/04 04:51:13;;;;;;;1.83;0.93;;;22.50;91.70;;;;;;5035617;28;20100;-81
2023/07/04 04:53:41;;;;;;;1.10;0.80;;;22.60;91.60;;;;;;5035738;28;20108;-81
2023/07/04 04:56:08;;;;;;;1.42;0.77;;;22.60;91.50;;;;;;5035633;28;20029;-81
2023/07/04 04:58:35;;;;;;;2.10;0.80;;;22.60;91.50;;;;;;5035564;28;20025;-81
2023/07/04 05:01:16;;;;;;;2.15;0.77;;;22.60;91.50;;;;;;5035627;28;20108;-81
2023/07/04 05:03:43;;;;;;;3.55;1.38;;;22.60;91.60;;;;;;5034931;28;20045;-80
2023/07/04 05:06:09;;;;;;;1.42;0.80;;;22.60;91.40;;;;;;5017414;28;20036;-80
2023/07/04 05:08:35;;;;;;;1.92;0.68;;;22.60;91.40;;;;;;5035516;28;20468;-81
2023/07/04 05:11:04;;;;;;;2.83;0.63;;;22.60;91.40;;;;;;5035205;28;20053;-81
2023/07/04 05:13:32;;;;;;;1.88;0.65;;;22.60;91.30;;;;;;5035016;28;20044;-80
2023/07/04 05:15:59;;;;;;;1.00;0.80;;;22.70;91.40;;;;;;5035056;28;20033;-81
2023/07/04 05:18:25;;;;;;;0.95;0.60;;;22.70;91.30;;;;;;5035398;28;20021;-81
2023/07/04 05:21:03;;;;;;;1.15;0.77;;;22.70;91.40;;;;;;5035392;28;20454;-81
2023/07/04 05:23:29;;;;;;;1.33;0.70;;;22.70;91.40;;;;;;5017036;28;20389;-81
2023/07/04 05:26:04;;;;;;;4.25;0.75;;;22.70;91.40;;;;;;5016762;28;20033;-81
2023/07/04 05:28:30;;;;;;;3.28;1.08;;;22.70;91.20;;;;;;5035131;28;20104;-81
2023/07/04 05:30:57;;;;;;;0.75;0.57;;;22.80;91.20;;;;;;5034917;28;20104;-81
2023/07/04 05:33:23;;;;;;;1.10;0.60;;;22.80;91.20;;;;;;5034944;28;20021;-81
2023/07/04 05:35:48;;;;;;;2.80;1.02;;;22.80;91.20;;;;;;5033958;28;20034;-80
2023/07/04 05:38:14;;;;;;;0.90;0.57;;;22.80;91.20;;;;;;5033844;28;20108;-81
2023/07/04 05:40:43;;;;;;;1.50;1.02;;;22.80;91.10;;;;;;5034782;28;20040;-81
2023/07/04 05:43:09;;;;;;;1.10;0.73;;;22.90;91.20;;;;;;5034702;28;20489;-81
2023/07/04 05:45:35;;;;;;;2.03;1.00;;;22.90;91.20;;;;;;5033776;28;20040;-82
2023/07/04 05:48:01;;;;;;;1.02;0.55;;;22.90;91.30;;;;;;5034547;28;20358;-81
2023/07/04 05:50:26;;;;;;;4.07;1.25;;;23.00;91.30;;;;;;5034773;28;20040;-81
2023/07/04 05:52:52;;;;;;;0.88;0.80;;;23.00;91.30;;;;;;5034240;28;20433;-81
2023/07/04 05:55:18;;;;;;;1.13;0.45;;;23.00;90.90;;;;;;5033981;28;20037;-82
2023/07/04 05:57:43;;;;;;;0.57;0.57;;;23.00;90.90;;;;;;5034388;28;20117;-81
2023/07/04 06:00:10;;;;;;;5.07;1.00;;;23.00;90.90;;;;;;5033456;28;20038;-81
2023/07/04 06:02:36;;;;;;;1.35;1.00;;;23.10;90.70;;;;;;5013346;28;20040;-81
2023/07/04 06:05:01;;;;;;;1.33;0.70;;;23.10;90.90;;;;;;5034033;28;20338;-81
2023/07/04 06:07:30;;;;;;;1.90;0.73;;;23.10;90.90;;;;;;5016117;28;20052;-81
2023/07/04 06:09:56;;;;;;;1.55;0.80;;;23.20;90.60;;;;;;5014292;28;20386;-80
2023/07/04 06:12:22;;;;;;;4.28;0.68;;;23.20;90.50;;;;;;5003073;28;20481;-81
2023/07/04 06:14:47;;;;;;;1.30;0.65;;;23.20;90.40;;;;;;5033712;28;20033;-81
2023/07/04 06:17:13;;;;;;;1.50;0.60;;;23.30;90.50;;;;;;5016355;28;20070;-81
2023/07/04 06:19:39;;;;;;;0.90;0.50;;;23.30;90.40;;;;;;5034026;28;20029;-80
2023/07/04 06:22:07;;;;;;;2.10;0.60;;;23.40;90.50;;;;;;5032583;28;20033;-81
2023/07/04 06:24:33;;;;;;;1.30;0.70;;;23.40;90.40;;;;;;5033864;28;20026;-82
2023/07/04 06:26:58;;;;;;;0.90;0.65;;;23.40;90.40;;;;;;5032486;28;20025;-81
2023/07/04 06:29:24;;;;;;;0.88;0.73;;;23.50;90.50;;;;;;5033741;28;20488;-81
2023/07/04 06:31:50;;;;;;;1.50;0.70;;;23.50;90.50;;;;;;5032783;28;20029;-82
2023/07/04 06:34:15;;;;;;;0.65;0.55;;;23.60;90.50;;;;;;5033266;28;20036;-83
2023/07/04 06:36:45;;;;;;;0.52;0.43;;;23.60;90.10;;;;;;5033047;28;20025;-83
2023/07/04 06:39:11;;;;;;;;;;;23.60;90.00;;;;;;5027990;28;20037;-83
2023/07/04 06:41:36;;;;;;;1.55;0.65;;;23.60;90.10;;;;;;5028376;28;19913;-82
2023/07/04 06:44:02;;;;;;;3.05;0.95;;;23.70;90.10;;;;;;5021111;28;20036;-82
2023/07/04 06:46:28;;;;;;;1.88;0.95;;;23.70;90.20;;;;;;5032788;28;20025;-82
2023/07/04 06:48:54;;;;;;;2.22;0.80;;;23.80;90.30;;;;;;5032336;28;20028;-82
2023/07/04 06:51:20;;;;;;;2.17;0.82;;;23.90;90.40;;;;;;5033243;28;20056;-82
2023/07/04 06:53:47;;;;;;;1.05;0.90;;;24.00;90.30;;;;;;5027051;28;20516;-82
2023/07/04 06:56:19;;;;;;;4.55;0.90;;;24.10;90.00;;;;;;5027610;28;20105;-82
2023/07/04 06:58:50;;;;;;;0.93;0.75;;;24.10;90.00;;;;;;5032093;28;20036;-82
2023/07/04 07:01:16;;;;;;;1.67;0.70;;;24.20;89.20;;;;;;5013999;28;20109;-82
2023/07/04 07:03:42;;;;;;;2.58;0.60;;;24.20;88.70;;;;;;5021276;28;20033;-82
2023/07/04 07:06:10;;;;;;;1.23;0.77;;;24.20;87.80;;;;;;5018009;28;20030;-82
2023/07/04 07:08:37;;;;;;;1.15;0.60;;;24.30;87.90;;;;;;5031950;28;20045;-82
2023/07/04 07:11:08;;;;;;;1.35;0.60;;;24.40;88.00;;;;;;5013090;28;20037;-82
2023/07/04 07:13:35;;;;;;;2.95;0.95;;;24.40;87.50;;;;;;5022031;28;20156;-82
2023/07/04 07:16:14;;;;;;;1.00;0.70;;;24.50;87.60;;;;;;5033198;28;20025;-82
2023/07/04 07:18:41;;;;;;;1.20;0.73;;;24.60;86.70;;;;;;5004522;28;20040;-78
2023/07/04 07:21:08;;;;;;;1.05;0.82;;;24.70;86.00;;;;;;5029665;28;20041;-78
2023/07/04 07:23:35;;;;;;;3.67;0.98;;;24.70;85.90;;;;;;5031053;28;20033;-78
2023/07/04 07:26:03;;;;;;;1.02;0.60;;;24.70;86.00;;;;;;5031225;28;20120;-78
2023/07/04 07:28:33;;;;;;;1.95;0.52;;;24.80;84.90;;;;;;5031139;28;20079;-78
2023/07/04 07:31:16;;;;;;;0.65;0.63;;;24.80;84.90;;;;;;5032699;28;20032;-78
2023/07/04 07:33:48;;;;;;;10.45;0.75;;;24.90;84.50;;;;;;5033259;28;20377;-78
2023/07/04 07:36:21;;;;;;;0.60;0.57;;;24.90;84.40;;;;;;5033207;28;20053;-78
2023/07/04 07:38:48;;;;;;;1.15;0.60;;;25.00;84.20;;;;;;5032098;28;20523;-78
2023/07/04 07:41:14;;;;;;;3.25;1.02;;;25.00;84.20;;;;;;5031418;28;20029;-78
2023/07/04 07:43:41;;;;;;;1.80;0.68;;;25.10;83.90;;;;;;5015239;28;20033;-78
2023/07/04 07:46:12;;;;;;;1.63;0.40;;;25.10;82.90;;;;;;5032816;28;20512;-78
2023/07/04 07:48:38;;;;;;;2.60;0.75;;;25.10;82.40;;;;;;5033188;28;20110;-78
2023/07/04 07:51:06;;;;;;;0.70;0.50;;;25.20;82.30;;;;;;5033263;28;20032;-78
2023/07/04 07:53:32;;;;;;;0.47;0.47;;;25.30;81.70;;;;;;5015096;28;20026;-78
2023/07/04 07:55:58;;;;;;;2.50;0.80;;;25.30;81.40;;;;;;5032484;28;20025;-78
2023/07/04 07:58:24;;;;;;;1.50;0.63;;;25.40;80.80;;;;;;5032244;28;20340;-79
2023/07/04 08:00:49;;;;;;;1.63;0.50;;;25.40;80.00;;;;;;5015382;28;20055;-78
2023/07/04 08:03:16;;;;;;;1.67;0.70;;;25.40;79.50;;;;;;5032921;28;20061;-78
2023/07/04 08:05:45;;;;;;;0.73;0.43;;;25.40;79.40;;;;;;5032773;28;20025;-78
2023/07/04 08:08:10;;;;;;;1.27;0.57;;;25.50;79.40;;;;;;5033065;28;20030;-78
2023/07/04 08:10:38;;;;;;;1.88;0.55;;;25.60;79.30;;;;;;5032847;28;20032;-78
2023/07/04 08:13:04;;;;;;;0.60;0.57;;;25.60;78.90;;;;;;5032227;28;20045;-78
2023/07/04 08:15:29;;;;;;;1.10;0.60;;;25.70;78.50;;;;;;5032858;28;20041;-77
2023/07/04 08:17:55;;;;;;;2.85;0.65;;;25.80;78.30;;;;;;5032762;28;20366;-79
2023/07/04 08:20:21;;;;;;;3.45;0.70;;;25.80;77.60;;;;;;5032937;28;20363;-78
2023/07/04 08:22:47;;;;;;;1.77;0.60;;;25.90;77.60;;;;;;5032735;28;20100;-78
2023/07/04 08:25:13;;;;;;;0.60;0.60;;;25.90;78.50;;;;;;5034925;28;20040;-78
2023/07/04 08:27:39;;;;;;;2.17;0.73;;;26.00;78.80;;;;;;5016446;28;20030;-78
2023/07/04 08:30:05;;;;;;;0.98;0.63;;;26.10;76.80;;;;;;5016590;28;20033;-78
2023/07/04 08:32:33;;;;;;;0.65;0.50;;;26.20;77.30;;;;;;5016436;28;20048;-78
2023/07/04 08:34:59;;;;;;;0.90;0.60;;;26.20;77.50;;;;;;5016418;28;20351;-78
2023/07/04 08:37:25;;;;;;;1.88;0.80;;;26.30;78.40;;;;;;5016473;28;20496;-78
2023/07/04 08:39:51;;;;;;;1.05;0.52;;;26.40;77.40;;;;;;5016620;28;20037;-78
2023/07/04 08:42:19;;;;;;;0.50;0.50;;;26.40;77.80;;;;;;4998535;28;20030;-78
2023/07/04 08:44:45;;;;;;;0.40;0.40;;;26.50;78.60;;;;;;5027562;28;20112;-78
2023/07/04 08:47:15;;;;;;;0.50;0.50;;;26.50;76.80;;;;;;5035258;28;20030;-78
2023/07/04 08:49:59;;;;;;;;;;;26.60;76.90;;;;;;5034739;28;20049;-80
2023/07/04 08:52:52;;;;;;;2.22;0.68;;;26.60;72.90;;;;;;5035544;28;19909;-79
2023/07/04 08:55:19;;;;;;;1.85;0.60;;;26.60;72.30;;;;;;5035392;28;20033;-82
2023/07/04 08:57:58;;;;;;;1.75;0.80;;;26.50;72.90;;;;;;5035173;28;20076;-82
2023/07/04 09:00:35;;;;;;;2.25;0.40;;;26.60;74.10;;;;;;5034142;28;20104;-83
2023/07/04 09:03:25;;;;;;;0.68;0.50;;;26.60;74.40;;;;;;5035501;28;20060;-83
2023/07/04 09:05:59;;;;;;;1.30;0.50;;;26.70;73.80;;;;;;5027159;28;20033;-83
2023/07/04 09:09:16;;;;;;;1.65;0.70;;;26.80;73.90;;;;;;5017502;28;20034;-82
2023/07/04 09:11:42;;;;;;;0.60;0.60;;;26.90;73.20;;;;;;4998832;28;20037;-82
2023/07/04 09:14:17;;;;;;;0.45;0.40;;;27.00;73.80;;;;;;5035181;28;20029;-82
2023/07/04 09:16:47;;;;;;;0.70;0.45;;;27.10;74.20;;;;;;5030235;28;20053;-82
2023/07/04 09:19:17;;;;;;;0.50;0.30;;;27.20;74.40;;;;;;5026698;28;20025;-82
2023/07/04 09:21:44;;;;;;;0.65;0.40;;;27.30;74.20;;;;;;5023613;28;20052;-82
2023/07/04 09:24:11;;;;;;;0.63;0.38;;;27.40;71.90;;;;;;5032645;28;20137;-82
2023/07/04 09:26:49;;;;;;;0.65;0.40;;;27.40;73.50;;;;;;5033832;28;20100;-82
2023/07/04 09:29:21;;;;;;;1.17;0.50;;;27.50;72.80;;;;;;5033831;28;20474;-82
2023/07/04 09:31:58;;;;;;;2.05;0.60;;;27.60;72.90;;;;;;5033138;28;20021;-82
2023/07/04 09:34:34;;;;;;;0.60;0.50;;;27.70;72.80;;;;;;5033664;28;20057;-82
2023/07/04 09:37:08;;;;;;;1.15;0.52;;;27.80;71.60;;;;;;5033354;28;20030;-83
2023/07/04 09:39:49;;;;;;;0.57;0.47;;;27.90;72.00;;;;;;5033296;28;20033;-82
2023/07/04 09:42:19;;;;;;;0.65;0.50;;;27.90;72.80;;;;;;5028359;28;20367;-83
2023/07/04 09:44:46;;;;;;;1.00;0.50;;;28.00;71.40;;;;;;5015012;28;20454;-82
2023/07/04 09:47:31;;;;;;;1.00;0.40;;;28.10;72.10;;;;;;5024633;28;20030;-82
2023/07/04 09:50:24;;;;;;;1.30;0.43;;;28.30;72.50;;;;;;5028863;28;20139;-82
2023/07/04 09:53:10;;;;;;;1.05;0.60;;;28.40;72.90;;;;;;5032492;28;20035;-82
2023/07/04 09:55:41;;;;;;;0.73;0.50;;;28.50;71.60;;;;;;5024663;28;20029;-82
2023/07/04 09:58:16;;;;;;;0.88;0.60;;;28.60;71.00;;;;;;5023147;28;20390;-82
2023/07/04 10:00:45;;;;;;;0.93;0.60;;;28.60;68.40;;;;;;5023825;28;20034;-82
2023/07/04 10:03:11;;;;;;;2.47;0.40;;;28.60;68.10;;;;;;5022894;28;20029;-82
2023/07/04 10:05:37;;;;;;;1.90;0.50;;;28.70;69.80;;;;;;5026687;28;20044;-82
2023/07/04 10:08:12;;;;;;;0.88;0.40;;;28.70;69.20;;;;;;5026383;28;20026;-82
2023/07/04 10:10:48;;;;;;;0.82;0.55;;;28.70;70.00;;;;;;5019866;28;20037;-82
2023/07/04 10:13:15;;;;;;;0.47;0.38;;;28.80;69.80;;;;;;5023938;28;20490;-82
2023/07/04 10:15:43;;;;;;;1.35;0.80;;;29.00;68.00;;;;;;5019958;28;20173;-82
2023/07/04 10:18:32;;;;;;;2.05;0.73;;;29.10;69.00;;;;;;5016437;28;20041;-82
2023/07/04 10:21:00;;;;;;;1.00;0.63;;;29.30;70.10;;;;;;5014463;28;20105;-82
2023/07/04 10:23:27;;;;;;;1.08;0.30;;;29.40;69.00;;;;;;5008827;28;20036;-82
2023/07/04 10:25:55;;;;;;;0.75;0.57;;;29.40;68.90;;;;;;5023516;28;20361;-82
2023/07/04 10:28:27;;;;;;;1.35;0.50;;;29.50;69.10;;;;;;5021864;28;20083;-82
2023/07/04 10:30:57;;;;;;;0.63;0.30;;;29.70;69.30;;;;;;5028774;28;20462;-82
2023/07/04 10:33:37;;;;;;;0.30;0.30;;;29.70;69.00;;;;;;5021759;28;20037;-83
2023/07/04 10:36:06;;;;;;;0.50;0.47;;;29.90;68.10;;;;;;5026578;28;20385;-83
2023/07/04 10:38:32;;;;;;;1.73;0.52;;;30.00;68.00;;;;;;5022808;28;20116;-83
2023/07/04 10:40:59;;;;;;;0.50;0.50;;;30.10;68.20;;;;;;5025137;28;20084;-82
2023/07/04 10:43:34;;;;;;;0.43;0.43;;;30.10;66.40;;;;;;5023664;28;20021;-82
2023/07/04 10:46:01;;;;;;;1.35;0.40;;;30.30;66.70;;;;;;5033388;28;20033;-82
2023/07/04 10:48:32;;;;;;;1.35;0.45;;;30.40;64.00;;;;;;5033101;28;20076;-82
2023/07/04 10:51:10;;;;;;;0.88;0.50;;;30.40;66.10;;;;;;5033422;28;20060;-82
2023/07/04 10:53:36;;;;;;;0.43;0.43;;;30.60;65.40;;;;;;5025087;28;20022;-82
2023/07/04 10:56:14;;;;;;;0.95;0.63;;;30.80;66.40;;;;;;5024460;28;20090;-82
2023/07/04 10:58:43;;;;;;;0.70;0.55;;;31.00;65.10;;;;;;5026160;28;20509;-82
2023/07/04 11:01:12;;;;;;;1.10;0.40;;;31.10;65.00;;;;;;5014553;28;20467;-83
2023/07/04 11:03:59;;;;;;;1.02;0.43;;;31.30;65.10;;;;;;5032972;28;20033;-83
2023/07/04 11:06:34;;;;;;;0.60;0.55;;;31.50;62.30;;;;;;5013167;28;20474;-83
2023/07/04 11:09:00;;;;;;;0.30;0.30;;;31.50;62.50;;;;;;5014140;28;20033;-83
2023/07/04 11:11:30;;;;;;;0.75;0.47;;;31.70;62.90;;;;;;5027297;28;20417;-83
2023/07/04 11:14:00;;;;;;;0.45;0.45;;;31.80;63.00;;;;;;5029154;28;20033;-82
2023/07/04 11:16:31;;;;;;;3.78;1.98;;;31.90;63.10;;;;;;5033073;28;20029;-83
2023/07/04 11:19:15;;;;;;;1.63;1.17;;;32.20;58.60;;;;;;5033369;28;20497;-83
2023/07/04 11:22:07;;;;;;;1.73;0.77;;;32.30;61.10;;;;;;5033133;28;20393;-83
2023/07/04 11:24:43;;;;;;;1.92;0.70;;;32.60;60.70;;;;;;5029069;28;20095;-83
2023/07/04 11:27:24;;;;;;;1.55;0.50;;;32.60;57.80;;;;;;5032927;28;20052;-83
2023/07/04 11:29:58;;;;;;;0.88;0.57;;;32.70;59.70;;;;;;5032398;28;20018;-83
2023/07/04 11:32:26;;;;;;;1.20;0.68;;;33.00;60.30;;;;;;5031433;28;20036;-82
2023/07/04 11:35:15;;;;;;;0.47;0.47;;;33.30;60.80;;;;;;5032567;28;20044;-82
2023/07/04 11:37:44;;;;;;;1.45;0.80;;;33.70;60.70;;;;;;5025237;28;20117;-82
2023/07/04 11:40:24;;;;;;;0.52;0.40;;;34.10;60.90;;;;;;5031809;28;20432;-83
2023/07/04 11:42:58;;;;;;;2.53;0.90;;;34.60;59.50;;;;;;5024149;28;20541;-83
2023/07/04 11:45:25;;;;;;;1.63;0.75;;;35.10;59.30;;;;;;5032607;28;20030;-83
2023/07/04 11:47:56;;;;;;;1.15;0.60;;;35.40;59.10;;;;;;5033268;28;20028;-83
2023/07/04 11:50:34;;;;;;;1.08;0.57;;;35.70;58.70;;;;;;5032635;28;20030;-83
2023/07/04 11:53:09;;;;;;;1.30;0.75;;;36.00;57.70;;;;;;5032968;28;20068;-83
2023/07/04 11:55:35;;;;;;;0.82;0.68;;;36.30;56.70;;;;;;5032689;28;20033;-82
2023/07/04 11:58:06;;;;;;;1.45;0.90;;;36.50;56.60;;;;;;5031344;28;20436;-83
2023/07/04 12:00:35;;;;;;;0.50;0.50;;;36.80;54.70;;;;;;5036062;28;20052;-84
2023/07/04 12:03:21;;;;;;;1.00;0.70;;;36.90;55.30;;;;;;5025914;28;20478;-84
2023/07/04 12:05:52;;;;;;;2.70;0.70;;;37.00;54.30;;;;;;5036442;28;20056;-84
2023/07/04 12:08:22;;;;;;;0.85;0.60;;;37.10;54.80;;;;;;5036780;28;20067;-84
2023/07/04 12:10:48;;;;;;;0.82;0.40;;;37.20;53.70;;;;;;5026445;28;20114;-84
2023/07/04 12:13:19;;;;;;;0.95;0.70;;;37.20;53.80;;;;;;5028107;28;20121;-84
2023/07/04 12:15:51;;;;;;;1.52;0.70;;;37.40;53.50;;;;;;5036418;28;20466;-84
2023/07/04 12:18:27;;;;;;;0.90;0.60;;;37.50;53.70;;;;;;5036237;28;20097;-83
2023/07/04 12:20:54;;;;;;;1.05;0.57;;;37.70;52.70;;;;;;5036318;28;20493;-83
2023/07/04 12:23:21;;;;;;;0.57;0.57;;;37.80;53.40;;;;;;5036070;28;20385;-83
2023/07/04 12:25:49;;;;;;;0.70;0.57;;;37.90;52.80;;;;;;5035862;28;20022;-83
2023/07/04 12:28:16;;;;;;;1.52;0.80;;;38.00;52.70;;;;;;5036615;28;20131;-83
2023/07/04 12:30:50;;;;;;;0.90;0.60;;;38.10;52.00;;;;;;5036095;28;20450;-83
2023/07/04 12:33:21;;;;;;;0.73;0.70;;;38.30;51.30;;;;;;5018470;28;20045;-83
2023/07/04 12:35:54;;;;;;;1.73;0.90;;;38.30;51.70;;;;;;5036115;28;20238;-83
2023/07/04 12:38:22;;;;;;;1.33;0.90;;;38.40;51.40;;;;;;5017037;28;20033;-83
2023/07/04 12:40:49;;;;;;;1.50;0.90;;;38.50;50.70;;;;;;5020605;28;20453;-83
2023/07/04 12:43:15;;;;;;;0.90;0.60;;;38.60;50.60;;;;;;5034325;28;20029;-83
2023/07/04 12:45:41;;;;;;;1.98;1.08;;;38.70;49.90;;;;;;5016982;28;20060;-83
2023/07/04 12:48:10;;;;;;;1.30;0.70;;;38.60;49.90;;;;;;5035518;28;20057;-83
2023/07/04 12:50:39;;;;;;;0.68;0.50;;;38.70;49.20;;;;;;5035746;28;20080;-83
2023/07/04 12:53:07;;;;;;;0.65;0.60;;;38.70;49.40;;;;;;5030088;28;20562;-83
2023/07/04 12:55:36;;;;;;;3.03;0.65;;;38.70;49.50;;;;;;5034538;28;20413;-80
2023/07/04 12:58:05;;;;;;;1.98;0.77;;;38.60;49.50;;;;;;5034015;28;20030;-80